sensor_id;sensor_type;location;lat;lon;timestamp;P1;durP1;ratioP1;P2;durP2;ratioP2
26488;SDS011;14169;43.684;10.484;2023-04-03T00:00:07;13.27;;;8.90;;
26488;SDS011;14169;43.684;10.484;2023-04-03T00:02:34;10.40;;;9.27;;
26488;SDS011;14169;43.684;10.484;2023-04-03T00:05:00;8.80;;;7.75;;
26488;SDS011;14169;43.684;10.484;2023-04-03T00:07:25;8.40;;;7.18;;
26488;SDS011;14169;43.684;10.484;2023-04-03T00:09:51;8.25;;;6.72;;
26488;SDS011;14169;43.684;10.484;2023-04-03T00:12:17;6.13;;;5.53;;
26488;SDS011;14169;43.684;10.484;2023-04-03T00:14:42;7.03;;;5.95;;
26488;SDS011;14169;43.684;10.484;2023-04-03T00:17:07;8.50;;;5.35;;
26488;SDS011;14169;43.684;10.484;2023-04-03T00:19:33;9.27;;;5.82;;
26488;SDS011;14169;43.684;10.484;2023-04-03T00:21:58;6.97;;;6.03;;
26488;SDS011;14169;43.684;10.484;2023-04-03T00:24:24;7.43;;;5.88;;
26488;SDS011;14169;43.684;10.484;2023-04-03T00:26:49;8.07;;;6.75;;
26488;SDS011;14169;43.684;10.484;2023-04-03T00:29:15;8.85;;;6.28;;
26488;SDS011;14169;43.684;10.484;2023-04-03T00:31:40;11.10;;;7.63;;
26488;SDS011;14169;43.684;10.484;2023-04-03T00:34:05;11.65;;;8.02;;
26488;SDS011;14169;43.684;10.484;2023-04-03T00:36:31;9.75;;;7.70;;
26488;SDS011;14169;43.684;10.484;2023-04-03T00:38:56;10.68;;;6.88;;
26488;SDS011;14169;43.684;10.484;2023-04-03T00:41:22;8.95;;;7.53;;
26488;SDS011;14169;43.684;10.484;2023-04-03T00:43:47;11.55;;;8.48;;
26488;SDS011;14169;43.684;10.484;2023-04-03T00:46:13;9.25;;;7.70;;
26488;SDS011;14169;43.684;10.484;2023-04-03T00:48:40;8.40;;;7.60;;
26488;SDS011;14169;43.684;10.484;2023-04-03T00:51:09;11.20;;;7.57;;
26488;SDS011;14169;43.684;10.484;2023-04-03T00:53:40;9.07;;;8.18;;
26488;SDS011;14169;43.684;10.484;2023-04-03T00:56:13;11.40;;;8.75;;
26488;SDS011;14169;43.684;10.484;2023-04-03T00:58:51;7.82;;;7.05;;
26488;SDS011;14169;43.684;10.484;2023-04-03T01:01:30;8.27;;;7.13;;
26488;SDS011;14169;43.684;10.484;2023-04-03T01:03:57;8.43;;;7.57;;
26488;SDS011;14169;43.684;10.484;2023-04-03T01:06:26;7.75;;;6.95;;
26488;SDS011;14169;43.684;10.484;2023-04-03T01:08:55;8.52;;;6.38;;
26488;SDS011;14169;43.684;10.484;2023-04-03T01:11:21;10.70;;;6.80;;
26488;SDS011;14169;43.684;10.484;2023-04-03T01:13:47;8.02;;;7.22;;
26488;SDS011;14169;43.684;10.484;2023-04-03T01:16:14;7.75;;;7.03;;
26488;SDS011;14169;43.684;10.484;2023-04-03T01:18:40;10.02;;;7.32;;
26488;SDS011;14169;43.684;10.484;2023-04-03T01:24:17;7.97;;;7.18;;
26488;SDS011;14169;43.684;10.484;2023-04-03T01:26:46;8.13;;;7.35;;
26488;SDS011;14169;43.684;10.484;2023-04-03T01:29:11;9.60;;;7.15;;
26488;SDS011;14169;43.684;10.484;2023-04-03T01:31:47;10.98;;;7.75;;
26488;SDS011;14169;43.684;10.484;2023-04-03T01:34:17;10.02;;;7.70;;
26488;SDS011;14169;43.684;10.484;2023-04-03T01:36:43;10.90;;;7.93;;
26488;SDS011;14169;43.684;10.484;2023-04-03T01:39:09;10.68;;;7.07;;
26488;SDS011;14169;43.684;10.484;2023-04-03T01:41:34;9.35;;;8.32;;
26488;SDS011;14169;43.684;10.484;2023-04-03T01:43:59;9.60;;;8.20;;
26488;SDS011;14169;43.684;10.484;2023-04-03T01:46:25;9.38;;;8.30;;
26488;SDS011;14169;43.684;10.484;2023-04-03T01:48:51;9.25;;;8.43;;
26488;SDS011;14169;43.684;10.484;2023-04-03T01:51:16;8.38;;;7.45;;
26488;SDS011;14169;43.684;10.484;2023-04-03T01:53:42;8.52;;;7.70;;
26488;SDS011;14169;43.684;10.484;2023-04-03T01:56:08;8.70;;;7.90;;
26488;SDS011;14169;43.684;10.484;2023-04-03T01:58:34;8.75;;;7.50;;
26488;SDS011;14169;43.684;10.484;2023-04-03T02:00:59;8.65;;;7.40;;
26488;SDS011;14169;43.684;10.484;2023-04-03T02:03:25;8.35;;;7.32;;
26488;SDS011;14169;43.684;10.484;2023-04-03T02:05:51;9.07;;;7.50;;
26488;SDS011;14169;43.684;10.484;2023-04-03T02:08:16;8.88;;;7.28;;
26488;SDS011;14169;43.684;10.484;2023-04-03T02:10:48;6.82;;;5.93;;
26488;SDS011;14169;43.684;10.484;2023-04-03T02:13:15;8.90;;;7.35;;
26488;SDS011;14169;43.684;10.484;2023-04-03T02:15:40;7.93;;;7.13;;
26488;SDS011;14169;43.684;10.484;2023-04-03T02:18:06;7.00;;;6.30;;
26488;SDS011;14169;43.684;10.484;2023-04-03T02:20:32;8.63;;;6.90;;
26488;SDS011;14169;43.684;10.484;2023-04-03T02:22:58;8.13;;;7.38;;
26488;SDS011;14169;43.684;10.484;2023-04-03T02:25:23;8.30;;;7.35;;
26488;SDS011;14169;43.684;10.484;2023-04-03T02:27:49;7.47;;;6.78;;
26488;SDS011;14169;43.684;10.484;2023-04-03T02:30:14;7.82;;;6.60;;
26488;SDS011;14169;43.684;10.484;2023-04-03T02:32:40;7.93;;;6.82;;
26488;SDS011;14169;43.684;10.484;2023-04-03T02:35:07;8.23;;;6.75;;
26488;SDS011;14169;43.684;10.484;2023-04-03T02:37:33;8.35;;;7.07;;
26488;SDS011;14169;43.684;10.484;2023-04-03T02:39:59;8.30;;;7.40;;
26488;SDS011;14169;43.684;10.484;2023-04-03T02:42:25;7.97;;;7.13;;
26488;SDS011;14169;43.684;10.484;2023-04-03T02:44:50;7.88;;;7.07;;
26488;SDS011;14169;43.684;10.484;2023-04-03T02:47:16;9.30;;;6.95;;
26488;SDS011;14169;43.684;10.484;2023-04-03T02:49:41;8.15;;;7.35;;
26488;SDS011;14169;43.684;10.484;2023-04-03T02:52:09;8.57;;;7.68;;
26488;SDS011;14169;43.684;10.484;2023-04-03T02:54:34;7.95;;;7.13;;
26488;SDS011;14169;43.684;10.484;2023-04-03T02:57:00;10.45;;;7.47;;
26488;SDS011;14169;43.684;10.484;2023-04-03T02:59:26;8.20;;;7.40;;
26488;SDS011;14169;43.684;10.484;2023-04-03T03:01:51;11.38;;;6.72;;
26488;SDS011;14169;43.684;10.484;2023-04-03T03:04:17;8.57;;;7.30;;
26488;SDS011;14169;43.684;10.484;2023-04-03T03:06:42;8.77;;;7.97;;
26488;SDS011;14169;43.684;10.484;2023-04-03T03:09:07;7.43;;;6.72;;
26488;SDS011;14169;43.684;10.484;2023-04-03T03:11:33;7.53;;;6.82;;
26488;SDS011;14169;43.684;10.484;2023-04-03T03:13:58;7.68;;;6.95;;
26488;SDS011;14169;43.684;10.484;2023-04-03T03:16:24;8.18;;;7.38;;
26488;SDS011;14169;43.684;10.484;2023-04-03T03:18:49;9.07;;;8.18;;
26488;SDS011;14169;43.684;10.484;2023-04-03T03:21:15;8.90;;;8.00;;
26488;SDS011;14169;43.684;10.484;2023-04-03T03:23:40;12.52;;;7.68;;
26488;SDS011;14169;43.684;10.484;2023-04-03T03:26:07;7.72;;;7.03;;
26488;SDS011;14169;43.684;10.484;2023-04-03T03:28:34;7.80;;;6.80;;
26488;SDS011;14169;43.684;10.484;2023-04-03T03:31:01;10.25;;;6.63;;
26488;SDS011;14169;43.684;10.484;2023-04-03T03:33:27;7.13;;;6.38;;
26488;SDS011;14169;43.684;10.484;2023-04-03T03:35:53;9.40;;;6.00;;
26488;SDS011;14169;43.684;10.484;2023-04-03T03:38:19;6.63;;;5.95;;
26488;SDS011;14169;43.684;10.484;2023-04-03T03:40:46;6.78;;;6.18;;
26488;SDS011;14169;43.684;10.484;2023-04-03T03:43:13;6.45;;;5.85;;
26488;SDS011;14169;43.684;10.484;2023-04-03T03:45:38;8.52;;;5.88;;
26488;SDS011;14169;43.684;10.484;2023-04-03T03:48:04;6.18;;;5.50;;
26488;SDS011;14169;43.684;10.484;2023-04-03T03:50:29;7.35;;;6.03;;
26488;SDS011;14169;43.684;10.484;2023-04-03T03:52:55;6.53;;;5.90;;
26488;SDS011;14169;43.684;10.484;2023-04-03T03:55:20;6.55;;;5.78;;
26488;SDS011;14169;43.684;10.484;2023-04-03T03:57:46;6.50;;;5.90;;
26488;SDS011;14169;43.684;10.484;2023-04-03T04:00:12;6.38;;;5.40;;
26488;SDS011;14169;43.684;10.484;2023-04-03T04:02:38;8.02;;;5.95;;
26488;SDS011;14169;43.684;10.484;2023-04-03T04:05:03;6.80;;;6.10;;
26488;SDS011;14169;43.684;10.484;2023-04-03T04:07:29;9.05;;;6.63;;
26488;SDS011;14169;43.684;10.484;2023-04-03T04:09:54;6.32;;;5.22;;
26488;SDS011;14169;43.684;10.484;2023-04-03T04:12:20;5.97;;;5.18;;
26488;SDS011;14169;43.684;10.484;2023-04-03T04:14:45;6.28;;;5.68;;
26488;SDS011;14169;43.684;10.484;2023-04-03T04:17:12;8.23;;;5.72;;
26488;SDS011;14169;43.684;10.484;2023-04-03T04:19:40;6.75;;;5.50;;
26488;SDS011;14169;43.684;10.484;2023-04-03T04:22:05;5.88;;;5.10;;
26488;SDS011;14169;43.684;10.484;2023-04-03T04:24:31;9.65;;;6.35;;
26488;SDS011;14169;43.684;10.484;2023-04-03T04:26:56;7.93;;;5.22;;
26488;SDS011;14169;43.684;10.484;2023-04-03T04:29:22;6.63;;;5.68;;
26488;SDS011;14169;43.684;10.484;2023-04-03T04:31:47;6.63;;;5.85;;
26488;SDS011;14169;43.684;10.484;2023-04-03T04:34:13;9.27;;;6.70;;
26488;SDS011;14169;43.684;10.484;2023-04-03T04:36:38;8.93;;;7.18;;
26488;SDS011;14169;43.684;10.484;2023-04-03T04:39:04;7.45;;;5.97;;
26488;SDS011;14169;43.684;10.484;2023-04-03T04:41:30;8.27;;;6.85;;
26488;SDS011;14169;43.684;10.484;2023-04-03T04:43:56;9.63;;;6.65;;
26488;SDS011;14169;43.684;10.484;2023-04-03T04:46:21;12.20;;;6.25;;
26488;SDS011;14169;43.684;10.484;2023-04-03T04:48:47;6.63;;;5.00;;
26488;SDS011;14169;43.684;10.484;2023-04-03T04:51:13;6.50;;;5.90;;
26488;SDS011;14169;43.684;10.484;2023-04-03T04:53:39;9.40;;;7.40;;
26488;SDS011;14169;43.684;10.484;2023-04-03T04:56:05;8.85;;;8.00;;
26488;SDS011;14169;43.684;10.484;2023-04-03T04:58:33;7.47;;;6.78;;
26488;SDS011;14169;43.684;10.484;2023-04-03T05:01:03;8.80;;;8.00;;
26488;SDS011;14169;43.684;10.484;2023-04-03T05:03:33;6.85;;;5.18;;
26488;SDS011;14169;43.684;10.484;2023-04-03T05:05:58;5.78;;;5.22;;
26488;SDS011;14169;43.684;10.484;2023-04-03T05:08:24;6.63;;;5.93;;
26488;SDS011;14169;43.684;10.484;2023-04-03T05:10:50;8.98;;;6.95;;
26488;SDS011;14169;43.684;10.484;2023-04-03T05:13:16;7.97;;;7.18;;
26488;SDS011;14169;43.684;10.484;2023-04-03T05:15:41;9.60;;;8.60;;
26488;SDS011;14169;43.684;10.484;2023-04-03T05:18:07;12.10;;;10.90;;
26488;SDS011;14169;43.684;10.484;2023-04-03T05:20:32;10.77;;;9.68;;
26488;SDS011;14169;43.684;10.484;2023-04-03T05:22:58;10.70;;;9.68;;
26488;SDS011;14169;43.684;10.484;2023-04-03T05:25:24;14.45;;;8.95;;
26488;SDS011;14169;43.684;10.484;2023-04-03T05:27:50;9.85;;;8.85;;
26488;SDS011;14169;43.684;10.484;2023-04-03T05:30:15;7.70;;;6.82;;
26488;SDS011;14169;43.684;10.484;2023-04-03T05:32:42;9.82;;;7.70;;
26488;SDS011;14169;43.684;10.484;2023-04-03T05:35:07;7.82;;;6.10;;
26488;SDS011;14169;43.684;10.484;2023-04-03T05:37:36;9.30;;;6.15;;
26488;SDS011;14169;43.684;10.484;2023-04-03T05:40:02;17.15;;;6.80;;
26488;SDS011;14169;43.684;10.484;2023-04-03T05:42:29;5.80;;;5.30;;
26488;SDS011;14169;43.684;10.484;2023-04-03T05:44:54;6.88;;;6.13;;
26488;SDS011;14169;43.684;10.484;2023-04-03T05:47:20;7.63;;;6.43;;
26488;SDS011;14169;43.684;10.484;2023-04-03T05:49:45;13.15;;;6.95;;
26488;SDS011;14169;43.684;10.484;2023-04-03T05:52:21;8.85;;;6.88;;
26488;SDS011;14169;43.684;10.484;2023-04-03T05:54:52;12.88;;;7.55;;
26488;SDS011;14169;43.684;10.484;2023-04-03T05:57:17;9.90;;;6.60;;
26488;SDS011;14169;43.684;10.484;2023-04-03T05:59:43;7.20;;;6.50;;
26488;SDS011;14169;43.684;10.484;2023-04-03T06:02:11;16.67;;;6.90;;
26488;SDS011;14169;43.684;10.484;2023-04-03T06:04:39;8.27;;;6.35;;
26488;SDS011;14169;43.684;10.484;2023-04-03T06:07:04;8.75;;;6.13;;
26488;SDS011;14169;43.684;10.484;2023-04-03T06:09:31;6.63;;;5.35;;
26488;SDS011;14169;43.684;10.484;2023-04-03T06:11:57;10.43;;;5.03;;
26488;SDS011;14169;43.684;10.484;2023-04-03T06:14:24;5.68;;;4.10;;
26488;SDS011;14169;43.684;10.484;2023-04-03T06:16:50;7.72;;;3.72;;
26488;SDS011;14169;43.684;10.484;2023-04-03T06:19:16;5.13;;;4.38;;
26488;SDS011;14169;43.684;10.484;2023-04-03T06:21:41;8.73;;;4.45;;
26488;SDS011;14169;43.684;10.484;2023-04-03T06:24:07;6.35;;;4.55;;
26488;SDS011;14169;43.684;10.484;2023-04-03T06:26:33;5.65;;;3.83;;
26488;SDS011;14169;43.684;10.484;2023-04-03T06:28:59;3.97;;;3.58;;
26488;SDS011;14169;43.684;10.484;2023-04-03T06:31:25;7.40;;;3.97;;
26488;SDS011;14169;43.684;10.484;2023-04-03T06:33:50;4.15;;;3.05;;
26488;SDS011;14169;43.684;10.484;2023-04-03T06:36:17;6.93;;;2.58;;
26488;SDS011;14169;43.684;10.484;2023-04-03T06:38:45;2.85;;;2.30;;
26488;SDS011;14169;43.684;10.484;2023-04-03T06:41:11;4.32;;;2.78;;
26488;SDS011;14169;43.684;10.484;2023-04-03T06:43:37;3.58;;;2.70;;
26488;SDS011;14169;43.684;10.484;2023-04-03T06:46:02;7.47;;;2.85;;
26488;SDS011;14169;43.684;10.484;2023-04-03T06:48:28;7.28;;;2.40;;
26488;SDS011;14169;43.684;10.484;2023-04-03T06:50:54;7.80;;;2.10;;
26488;SDS011;14169;43.684;10.484;2023-04-03T06:53:20;4.07;;;1.90;;
26488;SDS011;14169;43.684;10.484;2023-04-03T06:55:46;5.45;;;2.00;;
26488;SDS011;14169;43.684;10.484;2023-04-03T06:58:12;4.32;;;1.85;;
26488;SDS011;14169;43.684;10.484;2023-04-03T07:00:38;3.40;;;1.52;;
26488;SDS011;14169;43.684;10.484;2023-04-03T07:03:04;2.92;;;1.70;;
26488;SDS011;14169;43.684;10.484;2023-04-03T07:05:29;3.70;;;1.77;;
26488;SDS011;14169;43.684;10.484;2023-04-03T07:07:55;2.38;;;1.42;;
26488;SDS011;14169;43.684;10.484;2023-04-03T07:10:21;3.20;;;1.30;;
26488;SDS011;14169;43.684;10.484;2023-04-03T07:12:48;2.70;;;1.60;;
26488;SDS011;14169;43.684;10.484;2023-04-03T07:15:13;2.63;;;1.48;;
26488;SDS011;14169;43.684;10.484;2023-04-03T07:17:39;3.00;;;1.65;;
26488;SDS011;14169;43.684;10.484;2023-04-03T07:20:05;4.50;;;1.60;;
26488;SDS011;14169;43.684;10.484;2023-04-03T07:22:32;2.85;;;2.28;;
26488;SDS011;14169;43.684;10.484;2023-04-03T07:24:57;2.75;;;1.88;;
26488;SDS011;14169;43.684;10.484;2023-04-03T07:27:24;3.10;;;2.30;;
26488;SDS011;14169;43.684;10.484;2023-04-03T07:29:50;3.53;;;1.92;;
26488;SDS011;14169;43.684;10.484;2023-04-03T07:32:15;3.85;;;1.50;;
26488;SDS011;14169;43.684;10.484;2023-04-03T07:34:41;2.90;;;1.75;;
26488;SDS011;14169;43.684;10.484;2023-04-03T07:37:06;5.13;;;1.70;;
26488;SDS011;14169;43.684;10.484;2023-04-03T07:39:34;2.95;;;1.75;;
26488;SDS011;14169;43.684;10.484;2023-04-03T07:41:59;3.67;;;1.67;;
26488;SDS011;14169;43.684;10.484;2023-04-03T07:44:25;3.33;;;1.67;;
26488;SDS011;14169;43.684;10.484;2023-04-03T07:46:51;2.72;;;1.67;;
26488;SDS011;14169;43.684;10.484;2023-04-03T07:49:17;3.08;;;1.60;;
26488;SDS011;14169;43.684;10.484;2023-04-03T07:51:48;1.88;;;1.30;;
26488;SDS011;14169;43.684;10.484;2023-04-03T07:54:13;2.10;;;1.10;;
26488;SDS011;14169;43.684;10.484;2023-04-03T07:56:39;2.20;;;1.25;;
26488;SDS011;14169;43.684;10.484;2023-04-03T07:59:05;1.70;;;1.30;;
26488;SDS011;14169;43.684;10.484;2023-04-03T08:01:31;2.28;;;1.40;;
26488;SDS011;14169;43.684;10.484;2023-04-03T08:03:58;3.03;;;1.40;;
26488;SDS011;14169;43.684;10.484;2023-04-03T08:06:24;3.17;;;1.60;;
26488;SDS011;14169;43.684;10.484;2023-04-03T08:08:49;1.40;;;1.20;;
26488;SDS011;14169;43.684;10.484;2023-04-03T08:11:15;1.67;;;1.13;;
26488;SDS011;14169;43.684;10.484;2023-04-03T08:13:40;2.78;;;1.52;;
26488;SDS011;14169;43.684;10.484;2023-04-03T08:16:11;2.40;;;1.08;;
26488;SDS011;14169;43.684;10.484;2023-04-03T08:18:38;1.50;;;1.08;;
26488;SDS011;14169;43.684;10.484;2023-04-03T08:21:08;3.78;;;1.35;;
26488;SDS011;14169;43.684;10.484;2023-04-03T08:23:35;2.35;;;1.25;;
26488;SDS011;14169;43.684;10.484;2023-04-03T08:26:08;1.52;;;1.20;;
26488;SDS011;14169;43.684;10.484;2023-04-03T08:28:35;1.77;;;1.17;;
26488;SDS011;14169;43.684;10.484;2023-04-03T08:31:07;1.40;;;1.30;;
26488;SDS011;14169;43.684;10.484;2023-04-03T08:33:36;1.67;;;1.30;;
26488;SDS011;14169;43.684;10.484;2023-04-03T08:36:04;4.03;;;1.15;;
26488;SDS011;14169;43.684;10.484;2023-04-03T08:38:31;2.60;;;1.10;;
26488;SDS011;14169;43.684;10.484;2023-04-03T08:41:01;2.42;;;1.13;;
26488;SDS011;14169;43.684;10.484;2023-04-03T08:43:43;2.22;;;1.00;;
26488;SDS011;14169;43.684;10.484;2023-04-03T08:46:27;2.30;;;1.15;;
26488;SDS011;14169;43.684;10.484;2023-04-03T08:49:03;2.78;;;0.80;;
26488;SDS011;14169;43.684;10.484;2023-04-03T08:51:34;0.88;;;0.68;;
26488;SDS011;14169;43.684;10.484;2023-04-03T08:54:04;1.00;;;0.80;;
26488;SDS011;14169;43.684;10.484;2023-04-03T08:56:37;2.47;;;0.80;;
26488;SDS011;14169;43.684;10.484;2023-04-03T08:59:05;3.05;;;0.77;;
26488;SDS011;14169;43.684;10.484;2023-04-03T09:01:39;1.98;;;0.60;;
26488;SDS011;14169;43.684;10.484;2023-04-03T09:04:12;1.92;;;0.88;;
26488;SDS011;14169;43.684;10.484;2023-04-03T09:06:40;10.90;;;1.13;;
26488;SDS011;14169;43.684;10.484;2023-04-03T09:20:34;1.35;;;0.70;;
26488;SDS011;14169;43.684;10.484;2023-04-03T09:23:08;2.13;;;0.50;;
26488;SDS011;14169;43.684;10.484;2023-04-03T09:25:42;0.98;;;0.50;;
26488;SDS011;14169;43.684;10.484;2023-04-03T09:28:08;4.53;;;0.65;;
26488;SDS011;14169;43.684;10.484;2023-04-03T09:30:35;2.83;;;1.10;;
26488;SDS011;14169;43.684;10.484;2023-04-03T09:33:00;1.15;;;0.50;;
26488;SDS011;14169;43.684;10.484;2023-04-03T09:38:13;0.60;;;0.60;;
26488;SDS011;14169;43.684;10.484;2023-04-03T09:40:43;0.82;;;0.55;;
26488;SDS011;14169;43.684;10.484;2023-04-03T09:43:35;1.38;;;0.77;;
26488;SDS011;14169;43.684;10.484;2023-04-03T09:49:03;1.83;;;0.70;;
26488;SDS011;14169;43.684;10.484;2023-04-03T09:51:30;0.60;;;0.40;;
26488;SDS011;14169;43.684;10.484;2023-04-03T09:53:56;0.90;;;0.43;;
26488;SDS011;14169;43.684;10.484;2023-04-03T09:56:26;2.45;;;0.50;;
26488;SDS011;14169;43.684;10.484;2023-04-03T10:01:38;1.67;;;0.90;;
26488;SDS011;14169;43.684;10.484;2023-04-03T10:04:09;0.80;;;0.60;;
26488;SDS011;14169;43.684;10.484;2023-04-03T10:06:47;0.88;;;0.50;;
26488;SDS011;14169;43.684;10.484;2023-04-03T10:09:26;0.70;;;0.50;;
26488;SDS011;14169;43.684;10.484;2023-04-03T10:12:00;1.38;;;0.60;;
26488;SDS011;14169;43.684;10.484;2023-04-03T10:14:26;1.35;;;0.50;;
26488;SDS011;14169;43.684;10.484;2023-04-03T10:19:44;2.90;;;0.40;;
26488;SDS011;14169;43.684;10.484;2023-04-03T10:22:18;1.60;;;0.60;;
26488;SDS011;14169;43.684;10.484;2023-04-03T10:28:00;1.35;;;0.63;;
26488;SDS011;14169;43.684;10.484;2023-04-03T10:30:32;0.98;;;0.57;;
26488;SDS011;14169;43.684;10.484;2023-04-03T10:41:47;1.58;;;0.65;;
26488;SDS011;14169;43.684;10.484;2023-04-03T10:47:10;1.23;;;0.75;;
26488;SDS011;14169;43.684;10.484;2023-04-03T10:52:17;8.85;;;0.93;;
26488;SDS011;14169;43.684;10.484;2023-04-03T10:57:44;1.73;;;0.50;;
26488;SDS011;14169;43.684;10.484;2023-04-03T11:03:28;0.68;;;0.40;;
26488;SDS011;14169;43.684;10.484;2023-04-03T11:05:56;6.75;;;0.60;;
26488;SDS011;14169;43.684;10.484;2023-04-03T11:11:29;3.90;;;0.52;;
26488;SDS011;14169;43.684;10.484;2023-04-03T11:14:00;1.98;;;0.43;;
26488;SDS011;14169;43.684;10.484;2023-04-03T11:16:29;12.57;;;1.65;;
26488;SDS011;14169;43.684;10.484;2023-04-03T11:19:07;1.90;;;0.40;;
26488;SDS011;14169;43.684;10.484;2023-04-03T11:21:44;3.90;;;1.63;;
26488;SDS011;14169;43.684;10.484;2023-04-03T11:24:19;1.70;;;0.52;;
26488;SDS011;14169;43.684;10.484;2023-04-03T11:26:48;3.78;;;0.60;;
26488;SDS011;14169;43.684;10.484;2023-04-03T11:29:18;4.03;;;0.88;;
26488;SDS011;14169;43.684;10.484;2023-04-03T11:34:48;0.80;;;0.60;;
26488;SDS011;14169;43.684;10.484;2023-04-03T11:40:08;1.70;;;0.63;;
26488;SDS011;14169;43.684;10.484;2023-04-03T11:48:41;0.47;;;0.40;;
26488;SDS011;14169;43.684;10.484;2023-04-03T11:50:56;1.25;;;0.30;;
26488;SDS011;14169;43.684;10.484;2023-04-03T11:53:27;1.50;;;0.40;;
26488;SDS011;14169;43.684;10.484;2023-04-03T11:56:01;1.30;;;0.35;;
26488;SDS011;14169;43.684;10.484;2023-04-03T12:01:43;1.20;;;0.40;;
26488;SDS011;14169;43.684;10.484;2023-04-03T12:04:10;0.75;;;0.38;;
26488;SDS011;14169;43.684;10.484;2023-04-03T12:09:21;2.00;;;0.60;;
26488;SDS011;14169;43.684;10.484;2023-04-03T12:11:49;2.00;;;0.68;;
26488;SDS011;14169;43.684;10.484;2023-04-03T12:14:17;2.60;;;1.15;;
26488;SDS011;14169;43.684;10.484;2023-04-03T12:16:44;11.73;;;1.20;;
26488;SDS011;14169;43.684;10.484;2023-04-03T12:26:39;6.22;;;1.08;;
26488;SDS011;14169;43.684;10.484;2023-04-03T12:29:27;0.77;;;0.30;;
26488;SDS011;14169;43.684;10.484;2023-04-03T12:32:19;1.48;;;0.60;;
26488;SDS011;14169;43.684;10.484;2023-04-03T12:48:28;0.82;;;0.50;;
26488;SDS011;14169;43.684;10.484;2023-04-03T12:50:57;1.08;;;0.40;;
26488;SDS011;14169;43.684;10.484;2023-04-03T12:53:27;1.25;;;0.88;;
26488;SDS011;14169;43.684;10.484;2023-04-03T12:56:18;2.38;;;0.55;;
26488;SDS011;14169;43.684;10.484;2023-04-03T12:58:52;2.20;;;1.05;;
26488;SDS011;14169;43.684;10.484;2023-04-03T13:01:23;1.77;;;0.93;;
26488;SDS011;14169;43.684;10.484;2023-04-03T13:03:52;2.03;;;0.70;;
26488;SDS011;14169;43.684;10.484;2023-04-03T13:08:56;2.47;;;0.50;;
26488;SDS011;14169;43.684;10.484;2023-04-03T13:11:30;3.92;;;0.50;;
26488;SDS011;14169;43.684;10.484;2023-04-03T13:16:27;1.70;;;0.43;;
26488;SDS011;14169;43.684;10.484;2023-04-03T13:18:53;1.75;;;0.50;;
26488;SDS011;14169;43.684;10.484;2023-04-03T13:21:24;1.10;;;0.52;;
26488;SDS011;14169;43.684;10.484;2023-04-03T13:23:54;1.83;;;0.50;;
26488;SDS011;14169;43.684;10.484;2023-04-03T13:26:22;5.57;;;0.88;;
26488;SDS011;14169;43.684;10.484;2023-04-03T13:28:51;0.70;;;0.52;;
26488;SDS011;14169;43.684;10.484;2023-04-03T13:34:25;1.05;;;0.60;;
26488;SDS011;14169;43.684;10.484;2023-04-03T13:36:46;0.95;;;0.43;;
26488;SDS011;14169;43.684;10.484;2023-04-03T13:41:54;10.25;;;1.08;;
26488;SDS011;14169;43.684;10.484;2023-04-03T13:49:35;2.55;;;0.38;;
26488;SDS011;14169;43.684;10.484;2023-04-03T13:52:17;2.10;;;0.77;;
26488;SDS011;14169;43.684;10.484;2023-04-03T13:54:51;0.50;;;0.50;;
26488;SDS011;14169;43.684;10.484;2023-04-03T13:57:22;3.63;;;0.63;;
26488;SDS011;14169;43.684;10.484;2023-04-03T13:59:49;3.67;;;0.38;;
26488;SDS011;14169;43.684;10.484;2023-04-03T14:02:20;0.93;;;0.40;;
26488;SDS011;14169;43.684;10.484;2023-04-03T14:04:56;0.45;;;0.40;;
26488;SDS011;14169;43.684;10.484;2023-04-03T14:09:52;2.92;;;0.50;;
26488;SDS011;14169;43.684;10.484;2023-04-03T14:12:19;1.05;;;0.30;;
26488;SDS011;14169;43.684;10.484;2023-04-03T14:14:50;1.45;;;0.47;;
26488;SDS011;14169;43.684;10.484;2023-04-03T14:17:17;0.43;;;0.40;;
26488;SDS011;14169;43.684;10.484;2023-04-03T14:19:49;0.80;;;0.40;;
26488;SDS011;14169;43.684;10.484;2023-04-03T14:22:20;0.80;;;0.30;;
26488;SDS011;14169;43.684;10.484;2023-04-03T14:24:51;5.95;;;0.50;;
26488;SDS011;14169;43.684;10.484;2023-04-03T14:29:58;4.93;;;0.65;;
26488;SDS011;14169;43.684;10.484;2023-04-03T14:32:24;0.80;;;0.60;;
26488;SDS011;14169;43.684;10.484;2023-04-03T14:34:51;1.33;;;0.40;;
26488;SDS011;14169;43.684;10.484;2023-04-03T14:37:19;1.33;;;0.50;;
26488;SDS011;14169;43.684;10.484;2023-04-03T14:39:47;0.77;;;0.60;;
26488;SDS011;14169;43.684;10.484;2023-04-03T14:42:15;2.08;;;0.55;;
26488;SDS011;14169;43.684;10.484;2023-04-03T14:44:42;1.35;;;0.30;;
26488;SDS011;14169;43.684;10.484;2023-04-03T14:47:12;1.48;;;0.50;;
26488;SDS011;14169;43.684;10.484;2023-04-03T14:49:38;12.98;;;1.10;;
26488;SDS011;14169;43.684;10.484;2023-04-03T14:52:04;1.65;;;0.52;;
26488;SDS011;14169;43.684;10.484;2023-04-03T14:54:30;0.82;;;0.30;;
26488;SDS011;14169;43.684;10.484;2023-04-03T14:56:57;7.95;;;0.55;;
26488;SDS011;14169;43.684;10.484;2023-04-03T14:59:24;0.90;;;0.40;;
26488;SDS011;14169;43.684;10.484;2023-04-03T15:01:51;1.23;;;0.30;;
26488;SDS011;14169;43.684;10.484;2023-04-03T15:04:18;3.50;;;0.60;;
26488;SDS011;14169;43.684;10.484;2023-04-03T15:06:45;1.60;;;0.43;;
26488;SDS011;14169;43.684;10.484;2023-04-03T15:11:46;0.90;;;0.30;;
26488;SDS011;14169;43.684;10.484;2023-04-03T15:14:12;1.58;;;0.28;;
26488;SDS011;14169;43.684;10.484;2023-04-03T15:16:37;0.50;;;0.35;;
26488;SDS011;14169;43.684;10.484;2023-04-03T15:19:02;1.55;;;0.40;;
26488;SDS011;14169;43.684;10.484;2023-04-03T15:21:28;0.93;;;0.50;;
26488;SDS011;14169;43.684;10.484;2023-04-03T15:23:53;0.65;;;0.45;;
26488;SDS011;14169;43.684;10.484;2023-04-03T15:26:19;0.90;;;0.40;;
26488;SDS011;14169;43.684;10.484;2023-04-03T15:28:45;4.47;;;0.60;;
26488;SDS011;14169;43.684;10.484;2023-04-03T15:31:11;3.22;;;0.30;;
26488;SDS011;14169;43.684;10.484;2023-04-03T15:33:36;1.35;;;0.20;;
26488;SDS011;14169;43.684;10.484;2023-04-03T15:36:02;0.85;;;0.30;;
26488;SDS011;14169;43.684;10.484;2023-04-03T15:38:29;0.65;;;0.30;;
26488;SDS011;14169;43.684;10.484;2023-04-03T15:40:55;2.55;;;0.50;;
26488;SDS011;14169;43.684;10.484;2023-04-03T15:43:21;1.02;;;0.60;;
26488;SDS011;14169;43.684;10.484;2023-04-03T15:45:47;1.73;;;0.30;;
26488;SDS011;14169;43.684;10.484;2023-04-03T15:48:13;0.88;;;0.30;;
26488;SDS011;14169;43.684;10.484;2023-04-03T15:50:39;2.22;;;0.28;;
26488;SDS011;14169;43.684;10.484;2023-04-03T15:53:05;2.58;;;0.80;;
26488;SDS011;14169;43.684;10.484;2023-04-03T15:55:32;2.15;;;0.20;;
26488;SDS011;14169;43.684;10.484;2023-04-03T15:57:59;0.35;;;0.30;;
26488;SDS011;14169;43.684;10.484;2023-04-03T16:00:25;0.50;;;0.20;;
26488;SDS011;14169;43.684;10.484;2023-04-03T16:02:53;0.82;;;0.30;;
26488;SDS011;14169;43.684;10.484;2023-04-03T16:05:24;0.90;;;0.30;;
26488;SDS011;14169;43.684;10.484;2023-04-03T16:07:50;1.10;;;0.40;;
26488;SDS011;14169;43.684;10.484;2023-04-03T16:10:18;1.98;;;0.40;;
26488;SDS011;14169;43.684;10.484;2023-04-03T16:12:44;2.95;;;0.77;;
26488;SDS011;14169;43.684;10.484;2023-04-03T16:15:10;0.80;;;0.35;;
26488;SDS011;14169;43.684;10.484;2023-04-03T16:17:36;4.18;;;0.60;;
26488;SDS011;14169;43.684;10.484;2023-04-03T16:20:03;0.73;;;0.30;;
26488;SDS011;14169;43.684;10.484;2023-04-03T16:22:30;1.50;;;0.40;;
26488;SDS011;14169;43.684;10.484;2023-04-03T16:24:55;1.85;;;0.70;;
26488;SDS011;14169;43.684;10.484;2023-04-03T16:27:21;1.30;;;1.20;;
26488;SDS011;14169;43.684;10.484;2023-04-03T16:29:47;0.98;;;0.50;;